Time;durP1;ratioP1;P1;durP2;ratioP2;P2;SDS_P1;SDS_P2;PMS_P1;PMS_P2;Temp;Humidity;BMP_temperature;BMP_pressure;BME280_temperature;BME280_humidity;BME280_pressure;Samples;Min_cycle;Max_cycle;Signal;HPM_P1;HPM_P2
2022/10/08 00:00:15;;;;;;;46.80;25.47;;;9.80;99.90;;;;;;5005144;28;20206;-71
2022/10/08 00:02:42;;;;;;;49.90;25.53;;;9.70;99.90;;;;;;5012498;28;20213;-71
2022/10/08 00:05:10;;;;;;;46.40;24.13;;;9.70;99.90;;;;;;5011831;28;20217;-68
2022/10/08 00:07:37;;;;;;;42.77;19.93;;;9.70;99.90;;;;;;5031451;28;20252;-68
2022/10/08 00:10:06;;;;;;;41.50;22.07;;;9.70;99.90;;;;;;4977366;28;20252;-70
2022/10/08 00:12:34;;;;;;;42.50;23.33;;;9.60;99.90;;;;;;4986913;28;20234;-69
2022/10/08 00:15:01;;;;;;;42.97;22.47;;;9.60;99.90;;;;;;4984093;28;20203;-68
2022/10/08 00:17:28;;;;;;;36.90;17.63;;;9.70;99.90;;;;;;4990265;28;20246;-69
2022/10/08 00:19:56;;;;;;;30.93;16.80;;;9.70;99.90;;;;;;4993163;28;20618;-70
2022/10/08 00:22:23;;;;;;;27.87;15.07;;;9.70;99.90;;;;;;4973505;28;20635;-69
2022/10/08 00:24:52;;;;;;;31.23;15.10;;;9.70;99.90;;;;;;4976360;28;20211;-70
2022/10/08 00:27:22;;;;;;;35.37;16.60;;;9.70;99.90;;;;;;4991892;28;20253;-71
2022/10/08 00:29:51;;;;;;;29.37;15.63;;;9.70;99.90;;;;;;4992465;28;20207;-70
2022/10/08 00:32:18;;;;;;;27.37;15.87;;;9.70;99.90;;;;;;4992012;28;20281;-69
2022/10/08 00:34:45;;;;;;;35.77;17.13;;;9.70;99.90;;;;;;4991749;28;20772;-69
2022/10/08 00:37:14;;;;;;;28.57;15.63;;;9.70;99.90;;;;;;4992230;28;20203;-70
2022/10/08 00:39:41;;;;;;;35.80;16.73;;;9.70;99.90;;;;;;4992201;28;20549;-70
2022/10/08 00:42:10;;;;;;;31.73;17.13;;;9.80;99.90;;;;;;4991901;28;20549;-70
2022/10/08 00:44:56;;;;;;;28.87;16.20;;;9.80;99.90;;;;;;4991251;28;20214;-70
2022/10/08 00:47:42;;;;;;;28.80;15.47;;;9.80;99.90;;;;;;4991957;28;20648;-70
2022/10/08 00:50:14;;;;;;;29.70;14.47;;;9.80;99.90;;;;;;4991740;28;20641;-70
2022/10/08 00:52:45;;;;;;;28.00;13.80;;;9.80;99.90;;;;;;4992152;28;20646;-69
2022/10/08 00:55:14;;;;;;;24.17;13.67;;;9.80;99.90;;;;;;4991022;28;20218;-69
2022/10/08 00:57:42;;;;;;;25.77;14.50;;;9.80;99.90;;;;;;4991724;28;20203;-70
2022/10/08 01:00:13;;;;;;;25.77;13.30;;;9.80;99.90;;;;;;4989281;28;20210;-69
2022/10/08 01:02:40;;;;;;;26.57;14.10;;;9.80;99.90;;;;;;4991961;28;20191;-69
2022/10/08 01:05:08;;;;;;;24.43;13.60;;;9.80;99.90;;;;;;4990609;28;20213;-71
2022/10/08 01:07:44;;;;;;;24.00;13.90;;;9.90;99.90;;;;;;4991842;28;20214;-69
2022/10/08 01:10:17;;;;;;;22.63;12.87;;;9.90;99.90;;;;;;4991610;28;20630;-70
2022/10/08 01:12:53;;;;;;;25.80;13.23;;;9.90;99.90;;;;;;4991572;28;20548;-69
2022/10/08 01:15:26;;;;;;;27.20;14.33;;;9.90;99.90;;;;;;4991771;28;20664;-72
2022/10/08 01:18:01;;;;;;;27.43;14.33;;;9.90;99.90;;;;;;4991287;28;20192;-71
2022/10/08 01:20:38;;;;;;;24.13;12.40;;;9.90;99.90;;;;;;4991854;28;20195;-70
2022/10/08 01:23:39;;;;;;;23.93;12.83;;;9.90;99.90;;;;;;4991107;28;20196;-71
2022/10/08 01:26:21;;;;;;;23.93;11.93;;;9.90;99.90;;;;;;4990329;28;20199;-71
2022/10/08 01:28:55;;;;;;;21.13;11.37;;;9.90;99.90;;;;;;4991587;28;20204;-73
2022/10/08 01:31:25;;;;;;;23.20;12.20;;;9.90;99.90;;;;;;4991128;28;20787;-71
2022/10/08 01:33:58;;;;;;;19.43;11.23;;;9.90;99.90;;;;;;4991675;28;20195;-72
2022/10/08 01:36:27;;;;;;;22.27;11.90;;;9.90;99.90;;;;;;4977878;28;20278;-71
2022/10/08 01:39:00;;;;;;;20.60;11.10;;;9.90;99.90;;;;;;4971961;28;20212;-71
2022/10/08 01:41:30;;;;;;;19.83;11.77;;;9.90;99.90;;;;;;4971797;28;20188;-72
2022/10/08 01:44:03;;;;;;;19.53;10.90;;;9.90;99.90;;;;;;4971584;28;20204;-71
2022/10/08 01:46:33;;;;;;;20.43;12.33;;;9.90;99.90;;;;;;4986515;28;20663;-69
2022/10/08 01:49:06;;;;;;;22.90;12.10;;;9.90;99.90;;;;;;4990969;28;20211;-69
2022/10/08 01:51:36;;;;;;;25.33;12.23;;;9.90;99.90;;;;;;4990993;28;20261;-68
2022/10/08 01:54:08;;;;;;;22.67;11.63;;;9.90;99.90;;;;;;4982798;28;20318;-69
2022/10/08 01:56:38;;;;;;;20.17;11.00;;;9.90;99.90;;;;;;4971672;28;20626;-69
2022/10/08 01:59:11;;;;;;;23.43;10.40;;;9.90;99.90;;;;;;4971114;28;20215;-68
2022/10/08 02:01:44;;;;;;;19.87;10.43;;;9.90;99.90;;;;;;4971473;28;20212;-69
2022/10/08 02:06:59;;;;;;;21.77;10.83;;;9.90;99.90;;;;;;4990535;28;20186;-69
2022/10/08 02:09:26;;;;;;;20.60;10.53;;;9.90;99.90;;;;;;4990907;28;20196;-69
2022/10/08 02:11:53;;;;;;;17.90;11.13;;;9.90;99.90;;;;;;4990493;28;20228;-68
2022/10/08 02:14:24;;;;;;;20.77;11.43;;;9.90;99.90;;;;;;4989768;28;20219;-69
2022/10/08 02:16:58;;;;;;;20.97;10.90;;;9.90;99.90;;;;;;4990205;28;20318;-68
2022/10/08 02:19:36;;;;;;;18.07;9.93;;;9.90;99.90;;;;;;4990570;28;20188;-68
2022/10/08 02:22:06;;;;;;;19.00;10.47;;;9.90;99.90;;;;;;4990377;28;20191;-69
2022/10/08 02:24:38;;;;;;;25.73;11.23;;;9.90;99.90;;;;;;4974287;28;20735;-68
2022/10/08 02:27:08;;;;;;;18.77;10.30;;;9.90;99.90;;;;;;4970575;28;20193;-68
2022/10/08 02:29:41;;;;;;;17.97;10.03;;;9.90;99.90;;;;;;4971300;28;20205;-69
2022/10/08 02:32:14;;;;;;;19.17;10.50;;;9.90;99.90;;;;;;4970584;28;20244;-70
2022/10/08 02:34:46;;;;;;;19.77;10.33;;;9.80;99.90;;;;;;4970836;28;20666;-71
2022/10/08 02:37:17;;;;;;;19.87;11.60;;;9.80;99.90;;;;;;4971246;28;20192;-68
2022/10/08 02:39:50;;;;;;;22.00;11.17;;;9.80;99.90;;;;;;4971185;28;20646;-69
2022/10/08 02:42:23;;;;;;;19.97;11.07;;;9.80;99.90;;;;;;4971177;28;20204;-68
2022/10/08 02:44:56;;;;;;;20.90;11.40;;;9.80;99.90;;;;;;4970590;28;20212;-69
2022/10/08 02:47:28;;;;;;;24.17;12.13;;;9.80;99.90;;;;;;4977107;28;20295;-70
2022/10/08 02:50:00;;;;;;;24.83;12.70;;;9.80;99.90;;;;;;4990138;28;20555;-68
2022/10/08 02:52:29;;;;;;;20.80;11.30;;;9.80;99.90;;;;;;4990205;28;20231;-68
2022/10/08 02:55:00;;;;;;;22.10;12.37;;;9.80;99.90;;;;;;4986404;28;20209;-69
2022/10/08 02:57:31;;;;;;;19.23;10.90;;;9.70;99.90;;;;;;4990210;28;20258;-68
2022/10/08 03:00:00;;;;;;;21.63;12.63;;;9.70;99.90;;;;;;4990142;28;20206;-69
2022/10/08 03:02:33;;;;;;;26.57;14.53;;;9.70;99.90;;;;;;4975469;28;20205;-68
2022/10/08 03:05:05;;;;;;;27.40;15.33;;;9.70;99.90;;;;;;4970549;28;20232;-68
2022/10/08 03:07:33;;;;;;;30.93;16.37;;;9.60;99.90;;;;;;4970704;28;20199;-68
2022/10/08 03:10:04;;;;;;;28.20;15.30;;;9.60;99.90;;;;;;4970413;28;20848;-69
2022/10/08 03:12:31;;;;;;;30.93;14.90;;;9.50;99.90;;;;;;4987968;28;20230;-68
2022/10/08 03:15:00;;;;;;;24.00;13.00;;;9.50;99.90;;;;;;4989609;28;20207;-70
2022/10/08 03:17:31;;;;;;;22.00;12.57;;;9.50;99.90;;;;;;4989542;28;20207;-70
2022/10/08 03:20:01;;;;;;;20.37;11.33;;;9.40;99.90;;;;;;4989756;28;20274;-69
2022/10/08 03:22:29;;;;;;;20.87;11.20;;;9.40;99.90;;;;;;4988307;28;20207;-68
2022/10/08 03:24:56;;;;;;;21.37;9.90;;;9.40;99.90;;;;;;4989464;28;20214;-69
2022/10/08 03:27:23;;;;;;;16.93;9.90;;;9.40;99.90;;;;;;4989823;28;20214;-67
2022/10/08 03:29:55;;;;;;;16.13;8.77;;;9.40;99.90;;;;;;4989486;28;20564;-70
2022/10/08 03:32:23;;;;;;;16.47;9.07;;;9.40;99.90;;;;;;4986113;28;20681;-69
2022/10/08 03:34:50;;;;;;;18.73;9.07;;;9.30;99.90;;;;;;4989180;28;20216;-69
2022/10/08 03:37:17;;;;;;;15.50;8.60;;;9.30;99.90;;;;;;4989296;28;20209;-72
2022/10/08 03:39:44;;;;;;;17.80;8.70;;;9.30;99.90;;;;;;4989118;28;20212;-68
2022/10/08 03:42:11;;;;;;;16.50;8.53;;;9.30;99.90;;;;;;4988208;28;20207;-68
2022/10/08 03:44:38;;;;;;;14.67;7.97;;;9.30;99.90;;;;;;4989426;28;20223;-68
2022/10/08 03:47:05;;;;;;;15.77;8.80;;;9.30;99.90;;;;;;4989360;28;20204;-69
2022/10/08 03:49:33;;;;;;;15.77;9.07;;;9.20;99.90;;;;;;4989706;28;20211;-68
2022/10/08 03:51:59;;;;;;;18.43;8.50;;;9.20;99.90;;;;;;4988342;28;20703;-68
2022/10/08 03:54:26;;;;;;;17.30;9.13;;;9.20;99.90;;;;;;4989378;28;20218;-68
2022/10/08 03:56:53;;;;;;;17.40;9.00;;;9.20;99.90;;;;;;4988966;28;20207;-67
2022/10/08 03:59:20;;;;;;;18.33;9.13;;;9.20;99.90;;;;;;4989392;28;20758;-68
2022/10/08 04:01:47;;;;;;;16.47;9.57;;;9.20;99.90;;;;;;4985380;28;20196;-71
2022/10/08 04:04:14;;;;;;;19.47;9.53;;;9.10;99.90;;;;;;4989023;28;20691;-68
2022/10/08 04:06:42;;;;;;;18.07;9.50;;;9.10;99.90;;;;;;4988683;28;20215;-70
2022/10/08 04:09:10;;;;;;;20.67;9.63;;;9.10;99.90;;;;;;4989194;28;20210;-68
2022/10/08 04:11:36;;;;;;;17.90;9.00;;;9.10;99.90;;;;;;4985891;28;20604;-70
2022/10/08 04:14:03;;;;;;;21.07;10.33;;;9.10;99.90;;;;;;4972354;28;20212;-69
2022/10/08 04:16:30;;;;;;;16.40;8.97;;;9.10;99.90;;;;;;4969457;28;20714;-70
2022/10/08 04:18:57;;;;;;;15.93;9.20;;;9.10;99.90;;;;;;4969524;28;20212;-68
2022/10/08 04:21:24;;;;;;;15.20;9.33;;;9.10;99.90;;;;;;4971285;28;20237;-68
2022/10/08 04:23:52;;;;;;;19.00;9.17;;;9.00;99.90;;;;;;4988428;28;20215;-70
2022/10/08 04:26:19;;;;;;;18.33;9.83;;;9.10;99.90;;;;;;4989109;28;20203;-67
2022/10/08 04:28:47;;;;;;;20.80;10.10;;;9.00;99.90;;;;;;4988640;28;20208;-69
2022/10/08 04:31:16;;;;;;;18.70;9.47;;;9.00;99.90;;;;;;4988701;28;20235;-69
2022/10/08 04:33:44;;;;;;;22.00;9.47;;;9.00;99.90;;;;;;4983175;28;20550;-67
2022/10/08 04:36:12;;;;;;;18.53;10.57;;;9.10;99.90;;;;;;4980361;28;20695;-67
2022/10/08 04:38:39;;;;;;;21.43;9.50;;;9.00;99.90;;;;;;5003274;28;20203;-69
2022/10/08 04:41:10;;;;;;;12.57;8.37;;;9.00;99.90;;;;;;5008327;28;20213;-70
2022/10/08 04:43:38;;;;;;;15.00;8.50;;;9.10;99.90;;;;;;5007864;28;20230;-69
2022/10/08 04:46:07;;;;;;;19.17;8.87;;;9.00;99.90;;;;;;5008675;28;20211;-69
2022/10/08 04:48:33;;;;;;;17.67;8.27;;;9.00;99.90;;;;;;5007115;28;20201;-70
2022/10/08 04:51:02;;;;;;;16.80;7.70;;;9.10;99.90;;;;;;4992001;28;20685;-68
2022/10/08 04:53:29;;;;;;;17.10;8.27;;;9.10;99.90;;;;;;4991481;28;20229;-67
2022/10/08 04:55:57;;;;;;;18.23;7.90;;;9.10;99.90;;;;;;4991889;28;20235;-69
2022/10/08 04:58:26;;;;;;;14.67;7.43;;;9.10;99.90;;;;;;4991838;28;20208;-69
2022/10/08 05:00:53;;;;;;;14.17;7.40;;;9.10;99.90;;;;;;4989921;28;20207;-68
2022/10/08 05:03:20;;;;;;;19.60;8.10;;;9.20;99.90;;;;;;4991782;28;20210;-70
2022/10/08 05:05:47;;;;;;;14.87;7.33;;;9.20;99.90;;;;;;4991482;28;20669;-69
2022/10/08 05:08:13;;;;;;;14.00;7.30;;;9.20;99.90;;;;;;4991927;28;20677;-70
2022/10/08 05:10:48;;;;;;;14.60;6.97;;;9.30;99.90;;;;;;4991579;28;20207;-69
2022/10/08 05:13:14;;;;;;;17.13;8.33;;;9.30;99.90;;;;;;4990739;28;20219;-68
2022/10/08 05:15:43;;;;;;;13.03;7.60;;;9.30;99.90;;;;;;4990277;28;20227;-67
2022/10/08 05:18:10;;;;;;;16.03;7.13;;;9.40;99.90;;;;;;4988512;28;20273;-68
2022/10/08 05:20:37;;;;;;;16.20;7.00;;;9.40;99.90;;;;;;4990642;28;20210;-68
2022/10/08 05:23:04;;;;;;;15.80;7.20;;;9.50;99.90;;;;;;4990449;28;20541;-71
2022/10/08 05:25:31;;;;;;;15.90;7.17;;;9.50;99.90;;;;;;4990221;28;20756;-71
2022/10/08 05:27:58;;;;;;;11.20;6.20;;;9.60;99.90;;;;;;4990285;28;20287;-70
2022/10/08 05:30:25;;;;;;;17.60;7.23;;;9.70;99.90;;;;;;4987990;28;20203;-71
2022/10/08 05:32:53;;;;;;;13.07;7.00;;;9.70;99.90;;;;;;4989454;28;20240;-70
2022/10/08 05:35:20;;;;;;;15.00;6.57;;;9.80;99.90;;;;;;4990226;28;20764;-67
2022/10/08 05:37:47;;;;;;;12.17;6.60;;;9.90;99.90;;;;;;4990283;28;20200;-71
2022/10/08 05:40:14;;;;;;;16.73;8.47;;;9.90;99.90;;;;;;4990343;28;20230;-68
2022/10/08 05:42:41;;;;;;;17.50;8.13;;;10.00;99.90;;;;;;4989663;28;20205;-68
2022/10/08 05:45:08;;;;;;;12.83;7.33;;;10.10;99.90;;;;;;4986540;28;20218;-69
2022/10/08 05:47:35;;;;;;;17.17;7.00;;;10.10;99.90;;;;;;4989413;28;20217;-70
2022/10/08 05:50:04;;;;;;;13.27;6.50;;;10.20;99.90;;;;;;4989450;28;20199;-69
2022/10/08 05:52:30;;;;;;;19.13;6.90;;;10.30;99.90;;;;;;4989546;28;20219;-70
2022/10/08 05:54:57;;;;;;;13.70;6.30;;;10.40;99.90;;;;;;4989679;28;20200;-69
2022/10/08 05:57:24;;;;;;;16.37;7.30;;;10.40;99.90;;;;;;4989323;28;20200;-69
2022/10/08 05:59:51;;;;;;;14.63;6.20;;;10.40;99.90;;;;;;4987107;28;20297;-68
2022/10/08 06:02:17;;;;;;;14.23;6.50;;;10.50;99.90;;;;;;4989683;28;20254;-70
2022/10/08 06:04:44;;;;;;;15.17;5.70;;;10.60;99.90;;;;;;4989569;28;20294;-72
2022/10/08 06:07:12;;;;;;;13.30;5.57;;;10.70;99.90;;;;;;4988894;28;20200;-70
2022/10/08 06:09:39;;;;;;;13.83;6.13;;;10.70;99.90;;;;;;4988982;28;20204;-69
2022/10/08 06:12:07;;;;;;;15.57;6.00;;;10.80;99.90;;;;;;4988704;28;20218;-69
2022/10/08 06:14:34;;;;;;;14.93;6.30;;;10.90;99.90;;;;;;4990189;28;20281;-71
2022/10/08 06:17:01;;;;;;;19.70;10.07;;;10.90;99.90;;;;;;4990796;28;20203;-70
2022/10/08 06:19:27;;;;;;;17.57;6.80;;;11.10;99.90;;;;;;4986187;28;20212;-70
2022/10/08 06:21:54;;;;;;;15.83;6.67;;;11.10;99.90;;;;;;4986232;28;20196;-70
2022/10/08 06:24:22;;;;;;;15.13;6.33;;;11.20;99.90;;;;;;4986421;28;20247;-68
2022/10/08 06:26:49;;;;;;;17.17;6.50;;;11.30;99.90;;;;;;4989721;28;20206;-68
2022/10/08 06:29:18;;;;;;;11.33;5.37;;;11.30;99.90;;;;;;4989240;28;20199;-69
2022/10/08 06:31:45;;;;;;;17.63;6.13;;;11.40;99.90;;;;;;4986208;28;20237;-70
2022/10/08 06:34:12;;;;;;;12.77;5.10;;;11.50;99.90;;;;;;4989218;28;20214;-68
2022/10/08 06:36:40;;;;;;;13.17;5.60;;;11.50;99.90;;;;;;4987418;28;20579;-69
2022/10/08 06:39:10;;;;;;;13.67;5.70;;;11.60;99.90;;;;;;4987737;28;20203;-72
2022/10/08 06:41:38;;;;;;;13.43;5.80;;;11.70;99.90;;;;;;4986141;28;20203;-69
2022/10/08 06:44:07;;;;;;;9.97;5.00;;;11.80;99.90;;;;;;4988807;28;20202;-69
2022/10/08 06:46:34;;;;;;;10.30;4.77;;;11.90;99.90;;;;;;4987234;28;20204;-71
2022/10/08 06:49:04;;;;;;;14.33;5.77;;;11.90;99.90;;;;;;4988953;28;20557;-70
2022/10/08 06:51:31;;;;;;;12.57;5.47;;;12.00;99.90;;;;;;4988730;28;20223;-71
2022/10/08 06:53:59;;;;;;;16.67;7.00;;;12.10;99.90;;;;;;4989017;28;20223;-70
2022/10/08 06:56:26;;;;;;;18.27;8.87;;;12.20;99.90;;;;;;4986273;28;20223;-69
2022/10/08 06:58:54;;;;;;;12.07;6.30;;;12.30;99.90;;;;;;4988454;28;20211;-67
2022/10/08 07:01:23;;;;;;;14.40;5.30;;;12.30;99.90;;;;;;4986810;28;20525;-68
2022/10/08 07:03:50;;;;;;;11.03;5.40;;;12.40;99.90;;;;;;4988839;28;20199;-69
2022/10/08 07:06:17;;;;;;;14.40;5.67;;;12.50;99.90;;;;;;4988570;28;20540;-70
2022/10/08 07:08:44;;;;;;;16.47;7.87;;;12.60;99.90;;;;;;4985265;28;20200;-69
2022/10/08 07:11:13;;;;;;;16.13;6.83;;;12.60;99.90;;;;;;4986927;28;20207;-70
2022/10/08 07:13:40;;;;;;;11.10;5.73;;;12.70;99.90;;;;;;4987318;28;20231;-67
2022/10/08 07:16:10;;;;;;;16.33;6.80;;;12.80;99.90;;;;;;4987485;28;20204;-70
2022/10/08 07:18:39;;;;;;;15.37;5.90;;;12.90;99.90;;;;;;4987624;28;20196;-68
2022/10/08 07:21:07;;;;;;;12.97;5.13;;;13.00;99.90;;;;;;4988552;28;20265;-71
2022/10/08 07:23:34;;;;;;;14.90;4.83;;;13.10;99.90;;;;;;4988924;28;20212;-69
2022/10/08 07:26:03;;;;;;;12.07;4.70;;;13.10;99.90;;;;;;4988567;28;20199;-68
2022/10/08 07:28:32;;;;;;;12.07;5.37;;;13.20;99.90;;;;;;4988243;28;20195;-70
2022/10/08 07:31:03;;;;;;;10.83;4.60;;;13.30;99.90;;;;;;4988354;28;20204;-69
2022/10/08 07:33:31;;;;;;;10.47;4.67;;;13.40;99.90;;;;;;4984461;28;20235;-69
2022/10/08 07:36:06;;;;;;;13.10;5.50;;;13.50;99.90;;;;;;4988150;28;20211;-67
2022/10/08 07:38:33;;;;;;;14.53;6.40;;;13.50;99.90;;;;;;4988852;28;20298;-70
2022/10/08 07:40:59;;;;;;;17.87;5.37;;;13.60;99.90;;;;;;4988064;28;20210;-70
2022/10/08 07:43:26;;;;;;;10.63;4.83;;;13.70;99.90;;;;;;5057011;28;20192;-69
2022/10/08 07:45:53;;;;;;;14.00;4.57;;;13.70;99.90;;;;;;5022542;28;20218;-70
2022/10/08 07:48:20;;;;;;;9.53;4.40;;;13.80;99.90;;;;;;4972262;28;20698;-72
2022/10/08 07:50:48;;;;;;;13.50;4.60;;;13.90;99.90;;;;;;5033765;28;20286;-72
2022/10/08 07:53:15;;;;;;;12.00;4.10;;;14.00;99.90;;;;;;5091277;28;20223;-69
2022/10/08 07:55:42;;;;;;;11.43;4.50;;;14.00;99.90;;;;;;5035745;28;20246;-69
2022/10/08 07:58:09;;;;;;;9.00;4.23;;;14.10;99.90;;;;;;5000472;28;20213;-72
2022/10/08 08:00:38;;;;;;;8.23;3.80;;;14.10;99.90;;;;;;5009221;28;20213;-72
2022/10/08 08:03:05;;;;;;;9.43;3.97;;;14.20;99.90;;;;;;5009060;28;20202;-71
2022/10/08 08:05:34;;;;;;;8.27;3.50;;;14.30;99.90;;;;;;5003711;28;20204;-72
2022/10/08 08:08:03;;;;;;;7.07;2.90;;;14.40;99.90;;;;;;5014089;28;20204;-71
2022/10/08 08:10:29;;;;;;;7.63;2.77;;;14.40;99.90;;;;;;5071949;28;20608;-72
2022/10/08 08:12:57;;;;;;;5.83;2.60;;;14.50;99.90;;;;;;5019961;28;20216;-69
2022/10/08 08:15:23;;;;;;;7.33;3.00;;;14.60;99.90;;;;;;5091773;28;20575;-68
2022/10/08 08:17:50;;;;;;;6.13;2.60;;;14.70;99.90;;;;;;4975179;28;20219;-68
2022/10/08 08:20:17;;;;;;;5.30;3.03;;;14.70;99.90;;;;;;4969285;28;20212;-68
2022/10/08 08:22:44;;;;;;;6.40;2.80;;;14.80;99.90;;;;;;4972745;28;20666;-70
2022/10/08 08:25:12;;;;;;;6.50;2.43;;;14.80;99.90;;;;;;4972914;28;20224;-71
2022/10/08 08:27:38;;;;;;;6.87;2.70;;;14.90;99.90;;;;;;4973192;28;20652;-69
2022/10/08 08:30:06;;;;;;;6.77;2.60;;;15.00;99.90;;;;;;4973291;28;20667;-70
2022/10/08 08:32:33;;;;;;;6.43;2.60;;;15.00;99.90;;;;;;4989506;28;20239;-69
2022/10/08 08:35:00;;;;;;;10.13;2.30;;;15.10;99.90;;;;;;4993698;28;20230;-69
2022/10/08 08:37:27;;;;;;;7.07;2.70;;;15.20;99.90;;;;;;4992259;28;20218;-69
2022/10/08 08:39:53;;;;;;;8.20;3.00;;;15.20;99.90;;;;;;4992275;28;20763;-70
2022/10/08 08:42:42;;;;;;;5.33;2.50;;;15.30;99.90;;;;;;4991912;28;20207;-69
2022/10/08 08:45:18;;;;;;;5.30;2.50;;;15.30;99.90;;;;;;4991970;28;20196;-69
2022/10/08 08:47:53;;;;;;;8.70;2.63;;;15.40;99.90;;;;;;4981120;28;20204;-70
2022/10/08 08:50:25;;;;;;;9.77;4.80;;;15.40;99.90;;;;;;4980813;28;20223;-69
2022/10/08 08:52:52;;;;;;;9.70;3.80;;;15.50;99.90;;;;;;4987780;28;20681;-70
2022/10/08 08:55:25;;;;;;;5.53;3.20;;;15.50;99.90;;;;;;4991551;28;20685;-68
2022/10/08 08:58:00;;;;;;;6.53;2.57;;;15.50;99.90;;;;;;4992112;28;20202;-68
2022/10/08 09:00:33;;;;;;;6.03;2.60;;;15.60;99.90;;;;;;4991879;28;20222;-68
2022/10/08 09:03:03;;;;;;;6.87;2.30;;;15.70;99.90;;;;;;4982937;28;20200;-70
2022/10/08 09:05:33;;;;;;;5.03;2.40;;;15.70;99.90;;;;;;4990270;28;20243;-71
2022/10/08 09:08:06;;;;;;;5.83;2.40;;;15.80;99.90;;;;;;4989811;28;20211;-72
2022/10/08 09:10:38;;;;;;;4.60;2.50;;;15.80;99.90;;;;;;4992966;28;20207;-70
2022/10/08 09:13:14;;;;;;;6.00;2.83;;;15.80;99.90;;;;;;4991203;28;20212;-71
2022/10/08 09:15:42;;;;;;;5.17;2.67;;;15.90;99.90;;;;;;4990469;28;20233;-70
2022/10/08 09:18:12;;;;;;;6.80;2.47;;;15.90;99.90;;;;;;4991421;28;20570;-73
2022/10/08 09:20:39;;;;;;;7.57;2.70;;;15.90;99.90;;;;;;4991585;28;20660;-71
2022/10/08 09:23:13;;;;;;;6.80;3.00;;;16.00;99.90;;;;;;4986781;28;20211;-71
2022/10/08 09:25:41;;;;;;;5.50;2.83;;;16.10;99.90;;;;;;4972240;28;20227;-70
2022/10/08 09:28:09;;;;;;;6.77;2.47;;;16.10;99.90;;;;;;4972003;28;20213;-70
2022/10/08 09:30:38;;;;;;;8.57;2.67;;;16.10;99.90;;;;;;4972500;28;20211;-71
2022/10/08 09:33:17;;;;;;;5.37;2.40;;;16.20;99.90;;;;;;4971141;28;20240;-71
2022/10/08 09:35:48;;;;;;;5.93;2.80;;;16.20;99.90;;;;;;4973967;28;20258;-71
2022/10/08 09:38:21;;;;;;;7.40;3.00;;;16.20;99.90;;;;;;4971703;28;20227;-73
2022/10/08 09:41:00;;;;;;;9.03;4.77;;;16.20;99.90;;;;;;4987051;28;20204;-71
2022/10/08 09:43:29;;;;;;;7.50;3.10;;;16.30;99.90;;;;;;4991354;28;20198;-70
2022/10/08 09:45:56;;;;;;;5.57;3.27;;;16.30;99.90;;;;;;4990223;28;20220;-71
2022/10/08 09:48:25;;;;;;;6.27;3.00;;;16.40;99.90;;;;;;4991027;28;20203;-70
2022/10/08 09:50:58;;;;;;;4.67;2.50;;;16.50;99.90;;;;;;4990964;28;20695;-71
2022/10/08 09:53:27;;;;;;;4.97;2.60;;;16.40;99.90;;;;;;4990986;28;20628;-71
2022/10/08 09:55:58;;;;;;;7.60;2.50;;;16.50;99.90;;;;;;4990452;28;20217;-72
2022/10/08 09:58:25;;;;;;;4.90;2.60;;;16.60;99.90;;;;;;4991094;28;20204;-71
2022/10/08 10:01:01;;;;;;;6.93;2.70;;;16.60;99.90;;;;;;4986047;28;20201;-73
2022/10/08 10:03:28;;;;;;;4.77;2.57;;;16.60;99.90;;;;;;4976937;28;20568;-70
2022/10/08 10:05:57;;;;;;;5.63;2.63;;;16.60;99.90;;;;;;4983737;28;20557;-74
2022/10/08 10:08:53;;;;;;;5.83;2.87;;;16.70;99.90;;;;;;4990800;28;20671;-71
2022/10/08 10:11:27;;;;;;;6.40;3.20;;;16.70;99.90;;;;;;4990992;28;20658;-70
2022/10/08 10:13:57;;;;;;;5.77;2.50;;;16.70;99.90;;;;;;4990787;28;20588;-71
2022/10/08 10:16:31;;;;;;;7.33;2.50;;;16.70;99.90;;;;;;4990686;28;20214;-72
2022/10/08 10:19:01;;;;;;;5.20;2.70;;;16.80;99.90;;;;;;4990388;28;20199;-70
2022/10/08 10:21:37;;;;;;;6.50;2.83;;;16.80;99.90;;;;;;4988201;28;20211;-71
2022/10/08 10:24:19;;;;;;;4.53;2.50;;;16.80;99.90;;;;;;4990624;28;20226;-71
2022/10/08 10:26:46;;;;;;;5.53;2.97;;;16.90;99.90;;;;;;4991122;28;20194;-71
2022/10/08 10:29:18;;;;;;;5.67;2.30;;;16.90;99.90;;;;;;4992802;28;20209;-73
2022/10/08 10:31:50;;;;;;;7.97;2.60;;;17.00;99.90;;;;;;4991967;28;20725;-74
2022/10/08 10:34:21;;;;;;;3.93;2.10;;;17.00;99.90;;;;;;4991974;28;20220;-71
2022/10/08 10:36:51;;;;;;;6.47;2.93;;;17.00;99.90;;;;;;4990675;28;20209;-72
2022/10/08 10:39:32;;;;;;;8.77;3.20;;;17.10;99.90;;;;;;4990632;28;20210;-71
2022/10/08 10:42:09;;;;;;;8.90;5.80;;;17.10;99.90;;;;;;4990049;28;20217;-72
2022/10/08 10:44:48;;;;;;;7.33;3.00;;;17.10;99.90;;;;;;4989430;28;20549;-71
2022/10/08 10:47:18;;;;;;;8.90;2.80;;;17.20;99.90;;;;;;4990562;28;20211;-70
2022/10/08 10:49:44;;;;;;;6.10;2.23;;;17.20;99.90;;;;;;4989271;28;20217;-72
2022/10/08 10:52:32;;;;;;;3.63;2.00;;;17.20;99.90;;;;;;4986855;28;20207;-71
2022/10/08 10:55:15;;;;;;;6.93;2.20;;;17.30;99.90;;;;;;4984603;28;20306;-71
2022/10/08 10:57:55;;;;;;;4.87;2.40;;;17.30;99.90;;;;;;4990000;28;20201;-72
2022/10/08 11:00:25;;;;;;;3.93;2.20;;;17.40;99.90;;;;;;4990349;28;20199;-70
2022/10/08 11:02:58;;;;;;;4.93;2.20;;;17.40;99.90;;;;;;4989975;28;20202;-72
2022/10/08 11:05:28;;;;;;;4.80;2.10;;;17.40;99.90;;;;;;4989176;28;20207;-73
2022/10/08 11:08:20;;;;;;;5.50;1.90;;;17.50;99.90;;;;;;4990113;28;20214;-70
2022/10/08 11:11:05;;;;;;;5.17;2.33;;;17.50;99.90;;;;;;4976247;28;20198;-71
2022/10/08 11:13:44;;;;;;;5.17;2.30;;;17.60;99.90;;;;;;4985512;28;20277;-74
2022/10/08 11:16:26;;;;;;;8.47;2.90;;;17.60;99.90;;;;;;4992799;28;20565;-72
2022/10/08 11:18:56;;;;;;;6.77;2.47;;;17.60;99.90;;;;;;4992728;28;20534;-73
2022/10/08 11:21:42;;;;;;;4.50;2.40;;;17.70;99.90;;;;;;5010687;28;20645;-70
2022/10/08 11:24:29;;;;;;;6.53;2.27;;;17.70;99.90;;;;;;5092176;28;20550;-71
2022/10/08 11:27:04;;;;;;;4.20;2.27;;;17.70;99.90;;;;;;5058315;28;20202;-73
2022/10/08 11:29:37;;;;;;;4.07;2.33;;;17.80;99.90;;;;;;4989792;28;20197;-72
2022/10/08 11:32:10;;;;;;;5.87;2.30;;;17.80;99.90;;;;;;4998632;28;20605;-75
2022/10/08 11:34:39;;;;;;;6.23;2.37;;;17.80;99.90;;;;;;4989536;28;20210;-72
2022/10/08 11:37:14;;;;;;;7.67;2.87;;;17.80;99.90;;;;;;4990459;28;20214;-76
2022/10/08 11:39:51;;;;;;;6.13;3.20;;;17.80;99.90;;;;;;5020530;28;20198;-71
2022/10/08 11:42:25;;;;;;;4.23;2.63;;;17.90;99.90;;;;;;4988296;28;20207;-72
2022/10/08 11:44:52;;;;;;;3.93;2.87;;;17.90;99.90;;;;;;5020626;28;20204;-74
2022/10/08 11:47:49;;;;;;;6.80;2.60;;;17.90;99.90;;;;;;5035925;28;20678;-73
2022/10/08 11:50:27;;;;;;;5.60;2.40;;;18.00;99.90;;;;;;5067490;28;20203;-74
2022/10/08 11:52:57;;;;;;;5.17;1.90;;;18.00;99.90;;;;;;5056636;28;20198;-72
2022/10/08 11:55:27;;;;;;;4.50;2.00;;;18.00;99.90;;;;;;4996825;28;20244;-73
2022/10/08 11:57:57;;;;;;;3.70;2.00;;;18.00;99.90;;;;;;4994184;28;20204;-75
2022/10/08 12:00:38;;;;;;;3.60;2.00;;;18.00;99.90;;;;;;4992399;28;20709;-71
2022/10/08 12:03:17;;;;;;;4.87;2.10;;;18.10;99.90;;;;;;4995152;28;20561;-73
2022/10/08 12:05:49;;;;;;;4.67;1.80;;;18.10;99.90;;;;;;5031416;28;20649;-74
2022/10/08 12:08:53;;;;;;;4.33;2.20;;;18.10;99.90;;;;;;4994362;28;20696;-71
2022/10/08 12:11:51;;;;;;;2.90;1.90;;;18.10;99.90;;;;;;4987557;28;20214;-70
2022/10/08 12:14:41;;;;;;;4.63;1.80;;;18.10;99.90;;;;;;4989926;28;20231;-70
2022/10/08 12:17:09;;;;;;;4.90;2.23;;;18.10;99.90;;;;;;4988929;28;20209;-72
2022/10/08 12:19:57;;;;;;;7.13;2.10;;;18.10;99.90;;;;;;4991647;28;20274;-72
2022/10/08 12:22:58;;;;;;;5.00;2.00;;;18.20;99.90;;;;;;4995855;28;20224;-73
2022/10/08 12:25:35;;;;;;;5.70;3.30;;;18.20;99.90;;;;;;4975023;28;20604;-73
2022/10/08 12:28:44;;;;;;;5.57;2.63;;;18.20;99.90;;;;;;4972585;28;20207;-71
2022/10/08 12:31:38;;;;;;;4.20;2.10;;;18.20;99.90;;;;;;4977143;28;20199;-72
2022/10/08 12:34:16;;;;;;;5.83;2.10;;;18.20;99.90;;;;;;4971604;28;20224;-72
2022/10/08 12:36:58;;;;;;;3.60;2.00;;;18.20;99.90;;;;;;4992546;28;20563;-73
2022/10/08 12:39:34;;;;;;;6.53;2.40;;;18.30;99.90;;;;;;4989760;28;20218;-71
2022/10/08 12:42:09;;;;;;;3.57;2.27;;;18.30;99.90;;;;;;4978661;28;20547;-72
2022/10/08 12:44:46;;;;;;;4.70;2.10;;;18.30;99.90;;;;;;4982378;28;20683;-71
2022/10/08 12:47:25;;;;;;;5.60;3.20;;;18.30;99.90;;;;;;4992184;28;20203;-72
2022/10/08 12:49:56;;;;;;;7.03;3.70;;;18.30;99.90;;;;;;4992184;28;20192;-72
2022/10/08 12:52:24;;;;;;;8.50;4.00;;;18.30;99.90;;;;;;4992242;28;20194;-73
2022/10/08 12:54:54;;;;;;;7.10;4.37;;;18.30;99.90;;;;;;4992377;28;20262;-71
2022/10/08 12:57:28;;;;;;;9.13;4.13;;;18.30;99.90;;;;;;5033586;28;20201;-72
2022/10/08 12:59:57;;;;;;;8.37;4.10;;;18.20;99.90;;;;;;5028820;28;20680;-71
2022/10/08 13:02:35;;;;;;;7.57;3.90;;;18.20;99.90;;;;;;4991133;28;20204;-72
2022/10/08 13:05:03;;;;;;;7.07;3.53;;;18.20;99.90;;;;;;4991536;28;20199;-73